This is the latest recevied weather packets stored in our database for station/object DK4EP-10. If no packets are shown the sender has not sent any weather packets the latest 10 day(s).
| Time | Temp. | Humidity | Pressure | Rain* | Wind** | Luminosity | Snow |
|---|---|---|---|---|---|---|---|
| 1788516956 | 23.89° C | 76% | 989 hPa | - | - | - | - |
| 1788516054 | 22.78° C | 80% | 990 hPa | - | - | - | - |
| 1788515106 | 23.89° C | 80% | 990 hPa | - | - | - | - |
| 1788514205 | 22.78° C | 81% | 990 hPa | - | - | - | - |
| 1788513203 | 23.33° C | 82% | 990 hPa | - | - | - | - |
| 1788512301 | 23.33° C | 82% | 990 hPa | - | - | - | - |
| 1788511400 | 22.78° C | 83% | 991 hPa | - | - | - | - |
| 1788510499 | 22.22° C | 88% | 991 hPa | - | - | - | - |
| 1788509597 | 21.11° C | 94% | 991 hPa | - | - | - | - |
| 1788508696 | 20° C | 99% | 991 hPa | - | - | - | - |
| 1788507795 | 20° C | 100% | 991 hPa | - | - | - | - |
| 1788506894 | 19.44° C | 100% | 991 hPa | - | - | - | - |
| 1788505993 | 19.44° C | 100% | 992 hPa | - | - | - | - |
| 1788505091 | 19.44° C | 97% | 992 hPa | - | - | - | - |
| 1788504190 | 20° C | 94% | 992 hPa | - | - | - | - |
| 1788503289 | 20° C | 94% | 992 hPa | - | - | - | - |
| 1788502388 | 20° C | 92% | 992 hPa | - | - | - | - |
| 1788501487 | 19.44° C | 93% | 992 hPa | - | - | - | - |
| 1788500585 | 18.33° C | 97% | 992 hPa | - | - | - | - |
| 1788499684 | 18.33° C | 98% | 992 hPa | - | - | - | - |
| 1788498783 | 18.33° C | 98% | 992 hPa | - | - | - | - |
| 1788497882 | 18.33° C | 99% | 992 hPa | - | - | - | - |
| 1788496991 | 17.78° C | 99% | 992 hPa | - | - | - | - |
| 1788496079 | 17.78° C | 99% | 993 hPa | - | - | - | - |
| 1788495178 | 17.78° C | 99% | 993 hPa | - | - | - | - |
* Rain since midnight (hover to see other rain measurements)
** Current wind speed in m/s (hover to see current wind gust speed)